WetterOnline ( https://www.wetteronline.de )

Wetter aktuell Freising

Aktuelles Wetter: Weihenstephan-Dürnast (478m)

6-stündlich | Neueste Meldungen
Ortszeit Temperatur Wetter
Sa, 22.06. 2:00 13.6° C wolkig
Fr, 21.06. 20:00 18.3° C leichter Regen
Fr, 21.06. 14:00 22.4° C bedeckt
Fr, 21.06. 8:00 19.0° C bewölkt
Fr, 21.06. 2:00 18.3° C bedeckt
Do, 20.06. 20:00 24.2° C leicht bewölkt
Do, 20.06. 14:00 23.8° C bedeckt
Do, 20.06. 8:00 16.3° C bedeckt
Ortszeit Temperatur Wetter
Sa, 22.06. 2:30 13.7° C bedeckt
Sa, 22.06. 2:20 13.7° C bedeckt
Sa, 22.06. 2:10 13.6° C bedeckt
Sa, 22.06. 2:00 13.6° C wolkig
Sa, 22.06. 1:50 13.6° C wolkig
Sa, 22.06. 1:40 13.7° C bedeckt
Sa, 22.06. 1:30 13.7° C bedeckt
Sa, 22.06. 1:00 13.7° C Regen
Sa, 22.06. 0:30 13.6° C Regen
Sa, 22.06. 0:00 14.0° C starker Regen
Fr, 21.06. 23:30 14.5° C Regen
Ortszeit Relative Feuchte Sichtweite
Sa, 22.06. 2:00 94% 50 km
Fr, 21.06. 20:00 93% 35 km
Fr, 21.06. 14:00 69% 50 km
Fr, 21.06. 8:00 99% 4.3 km
Fr, 21.06. 2:00 99% 4.1 km
Do, 20.06. 20:00 73% 35 km
Do, 20.06. 14:00 72% 40 km
Do, 20.06. 8:00 89% 45 km
Ortszeit Relative Feuchte Sichtweite
Sa, 22.06. 2:30 95% 40 km
Sa, 22.06. 2:20 95% -
Sa, 22.06. 2:10 95% -
Sa, 22.06. 2:00 94% 50 km
Sa, 22.06. 1:50 94% -
Sa, 22.06. 1:40 94% -
Sa, 22.06. 1:30 95% 45 km
Sa, 22.06. 1:00 95% 45 km
Sa, 22.06. 0:30 98% 14 km
Sa, 22.06. 0:00 94% 9 km
Fr, 21.06. 23:30 93% 9 km
Ortszeit Niederschlagsmenge Niederschlagsart
Sa, 22.06. 2:00 17 l/m2 in 6 Std. Regen
Fr, 21.06. 20:00 8 l/m2 in 12 Std. Regen
Fr, 21.06. 14:00 0.1 l/m2 in 6 Std. Regen
Fr, 21.06. 8:00 0.0 l/m2 in 12 Std. -
Fr, 21.06. 2:00 0.0 l/m2 in 6 Std. -
Do, 20.06. 20:00 0.1 l/m2 in 12 Std. Regen
Do, 20.06. 14:00 0.0 l/m2 in 6 Std. -
Do, 20.06. 8:00 0.0 l/m2 in 12 Std. -
Ortszeit Niederschlagsmenge Niederschlagsart
Sa, 22.06. 2:30 0.0 l/m2 in 30 Min -
Sa, 22.06. 2:20 keine Meldung -
Sa, 22.06. 2:10 keine Meldung -
Sa, 22.06. 2:00 0.1 l/m2 in 1 Std. Regen
Sa, 22.06. 1:50 keine Meldung -
Sa, 22.06. 1:40 keine Meldung -
Sa, 22.06. 1:30 0.1 l/m2 in 30 Min -
Sa, 22.06. 1:00 4.0 l/m2 in 1 Std. Regen
Sa, 22.06. 0:30 3.8 l/m2 in 30 Min -
Sa, 22.06. 0:00 5.4 l/m2 in 1 Std. Regen
Fr, 21.06. 23:30 1.1 l/m2 in 30 Min -
Ortszeit Stärke Spitze Richtung
km/h Bft. km/h Grad Sektor
Sa, 22.06. 2:00 7 2 54 230° SW
Fr, 21.06. 20:00 11 2 50 300° NW
Fr, 21.06. 14:00 19 3 50 260° W
Fr, 21.06. 8:00 13 3 19 80° O
Fr, 21.06. 2:00 2 1 11 80° O
Do, 20.06. 20:00 7 2 20 130° SO
Do, 20.06. 14:00 11 2 25 70° O
Do, 20.06. 8:00 7 2 19 70° O
Ortszeit Stärke Spitze Richtung
km/h Bft. km/h Grad Sektor
Sa, 22.06. 2:30 4 1 7 190° S
Sa, 22.06. 2:20 4 1 - 190° S
Sa, 22.06. 2:10 4 1 - 190° S
Sa, 22.06. 2:00 7 2 18 230° SW
Sa, 22.06. 1:50 7 2 - 230° SW
Sa, 22.06. 1:40 7 2 - 250° W
Sa, 22.06. 1:30 11 2 18 260° W
Sa, 22.06. 1:00 4 1 22 240° SW
Sa, 22.06. 0:30 14 3 22 80° O
Sa, 22.06. 0:00 17 3 39 250° W
Fr, 21.06. 23:30 26 4 39 240° SW
Ortszeit Untergrenze Bedeckung Gattung
total tief tief mittel hoch
Sa, 22.06. 2:00 1500 m 8/8 1/8 - - -
Fr, 21.06. 20:00 1800 m 7/8 7/8 - - -
Fr, 21.06. 14:00 3900 m 8/8 8/8 - - -
Fr, 21.06. 8:00 60 m 8/8 7/8 - - -
Fr, 21.06. 2:00 5700 m 8/8 8/8 - - -
Do, 20.06. 20:00 7200 m 6/8 0/8 - - -
Do, 20.06. 14:00 4500 m 8/8 8/8 - - -
Do, 20.06. 8:00 5700 m 8/8 8/8 - - -
Ortszeit Bedeckungsgrad in Achtel und Wolkenuntergrenze
Sa, 22.06. 2:30 2(1140m) 8(2100m) 8(7800m)
Sa, 22.06. 2:20 2(1140m) 8(2100m) 8(7800m)
Sa, 22.06. 2:10 8
Sa, 22.06. 2:00 1(1500m) 5(6300m) 8(7200m)
Sa, 22.06. 1:50 1(1500m) 5(6300m) 8(7200m)
Sa, 22.06. 1:40 8
Sa, 22.06. 1:30 1(3000m) 4(5100m) 8(5700m)
Sa, 22.06. 1:00 1(240m) 3(3000m) 8(3600m)
Sa, 22.06. 0:30 4(1800m) 6(2100m) 8(2700m)
Sa, 22.06. 0:00 6(1800m) 8(2400m)
Fr, 21.06. 23:30 7(2400m) 8(2700m)
Ortszeit Luftdruck NN (hPa) Tendenz (hPa in 3 Std.)
Sa, 22.06. 2:00 1016 - 0,3
Fr, 21.06. 20:00 1013 - 1,6
Fr, 21.06. 14:00 1016 + 1,9
Fr, 21.06. 8:00 1014 - 1,0
Fr, 21.06. 2:00 1016 - 1,2
Do, 20.06. 20:00 1015 - 1,4
Do, 20.06. 14:00 1017 - 0,7
Do, 20.06. 8:00 1019 - 0,6
Ortszeit Luftdruck NN (hPa) Tendenz (hPa in 3 Std.)
Sa, 22.06. 2:30 1016 - 1,4
Sa, 22.06. 2:20 1016 keine Meldung
Sa, 22.06. 2:10 1016 keine Meldung
Sa, 22.06. 2:00 1016 - 0,3
Sa, 22.06. 1:50 1016 keine Meldung
Sa, 22.06. 1:40 1016 keine Meldung
Sa, 22.06. 1:30 1016 + 0,6
Sa, 22.06. 1:00 1016 + 1,5
Sa, 22.06. 0:30 1015 + 0,1
Sa, 22.06. 0:00 1017 + 2,0
Fr, 21.06. 23:30 1017 + 2,0
Ortszeit Schneehöhe (cm)
Sa, 22.06. 2:00 0
Fr, 21.06. 20:00 0
Fr, 21.06. 14:00 0
Fr, 21.06. 8:00 0
Fr, 21.06. 2:00 0
Do, 20.06. 20:00 0
Do, 20.06. 14:00 0
Do, 20.06. 8:00 0
Ortszeit Schneehöhe (cm)
Sa, 22.06. 2:30 0
Sa, 22.06. 2:20 0
Sa, 22.06. 2:10 -
Sa, 22.06. 2:00 0
Sa, 22.06. 1:50 0
Sa, 22.06. 1:40 -
Sa, 22.06. 1:30 0
Sa, 22.06. 1:00 0
Sa, 22.06. 0:30 0
Sa, 22.06. 0:00 0
Fr, 21.06. 23:30 0
Link zu dieser Seite / Seite empfehlen

Das Wetter in ...